Etusivu
METAR-TAF:

METAR-TAF

Lentoasemat :

Pilanesberg International Airport

Sun City, Etelä-Afrikka

Leveyspiiri: 25-20-01S, Pituuspiiri: 027-10-24E, korkeus merenpinnasta: 1040 m

Tämänhetkinen sää

Tämä raportti tehtiin 28 minuuttia sitten, kello 19.00 UTC
Tuuli 3 kn etelästä/lounaasta
Lämpötila 15°C
Kosteus 44%
Ilmanpaine 1024 hPa

METAR: FAPN 221900Z AUTO 21003KT //// // ////// 15/03 Q1024

Aika: 21:28 (19:28 UTC)


TAF: puuttuu

Säähavainnot ja -ennusteet yli 4000 lentoasemalta (METAR- ja TAF-raportit).

Käytössä olevat sääasemat on merkitty karttaan keltaisilla ja punaisilla pisteillä.

Aseta hiiri pisteen päälle nähdäksesi sääaseman nimen.

Klikkaa sitten nähdäksesi säähavainnot ja -ennusteet.

Kartan vaihtaminen: klikkaa mustalla rastilla varustettuja vihreitä pisteitä, niin voit zoomata sisään; viivalla varustettua vihreää pistettä, niin voit zoomata ulos tai vihreitä nuolia, niin pääset viereisille kartoille.


METAR-TAF: